Time;durP1;ratioP1;P1;durP2;ratioP2;P2;SDS_P1;SDS_P2;PMS_P1;PMS_P2;Temp;Humidity;BMP_temperature;BMP_pressure;BME280_temperature;BME280_humidity;BME280_pressure;Samples;Min_cycle;Max_cycle;Signal;HPM_P1;HPM_P2
2022/05/23 00:01:19;;;;;;;0.10;0.10;;;19.80;73.10;;;;;;5051956;28;20021;-73
2022/05/23 00:03:45;;;;;;;0.00;0.00;;;19.70;73.60;;;;;;5052025;28;20025;-74
2022/05/23 00:06:16;;;;;;;0.10;0.10;;;19.90;73.20;;;;;;5051980;28;20114;-74
2022/05/23 00:08:42;;;;;;;0.10;0.10;;;20.10;72.20;;;;;;5051509;28;20057;-75
2022/05/23 00:11:08;;;;;;;0.20;0.20;;;19.90;72.60;;;;;;5051808;28;20033;-74
2022/05/23 00:13:34;;;;;;;0.10;0.10;;;19.40;74.30;;;;;;5051904;28;20048;-74
2022/05/23 00:16:02;;;;;;;0.10;0.10;;;19.30;75.20;;;;;;5051937;28;20112;-75
2022/05/23 00:18:28;;;;;;;0.10;0.10;;;19.30;75.10;;;;;;5051563;28;20025;-73
2022/05/23 00:20:53;;;;;;;0.10;0.10;;;19.40;75.00;;;;;;5051834;28;20108;-72
2022/05/23 00:23:19;;;;;;;0.22;0.22;;;19.60;74.30;;;;;;5051765;28;20017;-74
2022/05/23 00:25:45;;;;;;;0.00;0.00;;;19.60;73.70;;;;;;5051801;28;20079;-74
2022/05/23 00:28:10;;;;;;;3.53;1.90;;;19.70;73.60;;;;;;5051426;28;20082;-74
2022/05/23 00:30:36;;;;;;;0.10;0.10;;;19.80;73.30;;;;;;5051556;28;20025;-75
2022/05/23 00:35:52;;;;;;;0.10;0.10;;;20.00;72.80;;;;;;5051701;28;20035;-72
2022/05/23 00:38:18;;;;;;;0.10;0.10;;;19.90;73.30;;;;;;5051267;28;20033;-74
2022/05/23 00:43:13;;;;;;;0.10;0.10;;;19.90;73.00;;;;;;5051295;28;20021;-74
2022/05/23 00:43:39;;;;;;;0.10;0.10;;;19.90;73.40;;;;;;5051509;28;20499;-75
2022/05/23 00:46:05;;;;;;;0.10;0.10;;;19.80;73.30;;;;;;5051592;28;20017;-73
2022/05/23 00:48:32;;;;;;;0.10;0.10;;;19.80;73.60;;;;;;5051225;28;20049;-74
2022/05/23 00:51:00;;;;;;;0.28;0.28;;;19.60;74.50;;;;;;5051579;28;20063;-74
2022/05/23 00:53:34;;;;;;;0.28;0.28;;;19.40;75.10;;;;;;5051518;28;20029;-74
2022/05/23 00:56:00;;;;;;;0.00;0.00;;;19.50;75.30;;;;;;5051543;28;20025;-74
2022/05/23 00:58:32;;;;;;;0.00;0.00;;;19.40;75.60;;;;;;5033430;28;20025;-73
2022/05/23 01:01:01;;;;;;;0.10;0.10;;;19.10;76.90;;;;;;5051466;28;20100;-71
2022/05/23 01:03:27;;;;;;;0.10;0.10;;;18.80;77.70;;;;;;5051319;28;20036;-75
2022/05/23 01:05:54;;;;;;;0.10;0.10;;;18.80;78.70;;;;;;5051378;28;20028;-74
2022/05/23 01:08:21;;;;;;;2.40;0.55;;;18.80;79.00;;;;;;5051063;28;20044;-73
2022/05/23 01:10:47;;;;;;;0.10;0.10;;;18.70;78.60;;;;;;5051414;28;20025;-73
2022/05/23 01:13:14;;;;;;;0.10;0.10;;;18.60;79.70;;;;;;5051445;28;20025;-74
2022/05/23 01:15:47;;;;;;;0.10;0.10;;;18.60;79.40;;;;;;5033553;28;20027;-74
2022/05/23 01:18:13;;;;;;;0.10;0.10;;;18.80;79.10;;;;;;5050999;28;20057;-74
2022/05/23 01:20:39;;;;;;;0.20;0.20;;;18.60;79.30;;;;;;5051360;28;20423;-73
2022/05/23 01:23:12;;;;;;;0.10;0.10;;;18.60;80.10;;;;;;5054733;28;20067;-73
2022/05/23 01:25:46;;;;;;;0.20;0.20;;;18.30;81.40;;;;;;5054842;28;20369;-74
2022/05/23 01:28:13;;;;;;;0.10;0.10;;;18.40;81.00;;;;;;5054513;28;20021;-74
2022/05/23 01:30:40;;;;;;;0.10;0.10;;;18.50;80.00;;;;;;5036862;28;20393;-71
2022/05/23 01:33:08;;;;;;;0.10;0.10;;;18.50;80.70;;;;;;5054479;28;20041;-74
2022/05/23 01:35:33;;;;;;;0.80;0.70;;;18.50;80.30;;;;;;5054601;28;20075;-73
2022/05/23 01:37:59;;;;;;;0.10;0.10;;;18.60;80.30;;;;;;5054223;28;20033;-73
2022/05/23 01:40:25;;;;;;;0.10;0.10;;;18.80;79.70;;;;;;5054174;28;20020;-74
2022/05/23 01:42:51;;;;;;;0.10;0.10;;;18.90;79.50;;;;;;5054482;28;20068;-74
2022/05/23 01:45:22;;;;;;;0.20;0.20;;;19.00;79.20;;;;;;5054338;28;20468;-74
2022/05/23 01:47:49;;;;;;;0.10;0.10;;;18.90;79.00;;;;;;5054145;28;20021;-74
2022/05/23 01:50:14;;;;;;;0.08;0.08;;;18.70;79.80;;;;;;5054331;28;20086;-74
2022/05/23 01:52:41;;;;;;;0.38;0.38;;;18.60;80.80;;;;;;5054256;28;20531;-75
2022/05/23 01:55:07;;;;;;;0.10;0.10;;;18.80;79.90;;;;;;5054213;28;20025;-74
2022/05/23 01:57:33;;;;;;;0.10;0.10;;;18.80;80.10;;;;;;5036030;28;20040;-74
2022/05/23 02:02:47;;;;;;;0.10;0.10;;;18.60;81.30;;;;;;5036200;28;20162;-74
2022/05/23 02:05:15;;;;;;;0.17;0.17;;;18.80;80.90;;;;;;5054079;28;20433;-74
2022/05/23 02:07:41;;;;;;;0.10;0.10;;;19.00;79.70;;;;;;5053616;28;20087;-75
2022/05/23 02:10:07;;;;;;;0.10;0.10;;;18.80;79.70;;;;;;5053917;28;20425;-74
2022/05/23 02:12:33;;;;;;;0.10;0.10;;;18.80;80.50;;;;;;5053889;28;20499;-74
2022/05/23 02:14:59;;;;;;;0.10;0.10;;;18.90;79.60;;;;;;5053868;28;20025;-73
2022/05/23 02:17:25;;;;;;;0.10;0.10;;;18.90;79.50;;;;;;5053448;28;20033;-73
2022/05/23 02:19:50;;;;;;;0.10;0.10;;;19.00;79.80;;;;;;5053823;28;20028;-74
2022/05/23 02:22:17;;;;;;;0.20;0.20;;;19.10;79.00;;;;;;5053637;28;20025;-73
2022/05/23 02:24:43;;;;;;;0.10;0.10;;;19.00;79.10;;;;;;5053700;28;20032;-74
2022/05/23 02:27:09;;;;;;;0.10;0.10;;;18.90;79.80;;;;;;5053417;28;20021;-74
2022/05/23 02:29:35;;;;;;;0.10;0.10;;;18.70;80.30;;;;;;5053618;28;20381;-74
2022/05/23 02:32:01;;;;;;;0.10;0.10;;;18.80;80.50;;;;;;5053457;28;20045;-74
2022/05/23 02:34:26;;;;;;;0.10;0.10;;;18.50;79.90;;;;;;5035649;28;20067;-73
2022/05/23 02:36:53;;;;;;;0.10;0.10;;;18.20;82.00;;;;;;5053104;28;20028;-74
2022/05/23 02:39:19;;;;;;;0.10;0.10;;;18.00;82.50;;;;;;5035488;28;20370;-74
2022/05/23 02:41:45;;;;;;;0.10;0.10;;;17.90;83.40;;;;;;5035096;28;20021;-73
2022/05/23 02:44:12;;;;;;;0.20;0.20;;;17.90;83.70;;;;;;5053333;28;20123;-73
2022/05/23 02:46:38;;;;;;;0.10;0.10;;;18.00;83.30;;;;;;5053042;28;20025;-73
2022/05/23 02:49:06;;;;;;;0.10;0.10;;;18.20;82.40;;;;;;5053171;28;20200;-73
2022/05/23 02:51:32;;;;;;;0.10;0.10;;;18.50;80.90;;;;;;5053087;28;20112;-73
2022/05/23 02:53:58;;;;;;;0.10;0.10;;;18.90;79.40;;;;;;5053045;28;20443;-74
2022/05/23 02:56:24;;;;;;;0.43;0.43;;;19.00;79.00;;;;;;5052843;28;20059;-75
2022/05/23 02:58:50;;;;;;;0.20;0.20;;;19.10;77.90;;;;;;5052866;28;20147;-73
2022/05/23 03:01:16;;;;;;;0.10;0.10;;;18.60;80.10;;;;;;5034990;28;20025;-74
2022/05/23 03:03:41;;;;;;;0.20;0.20;;;18.60;80.60;;;;;;5052910;28;20021;-73
2022/05/23 03:06:08;;;;;;;0.10;0.10;;;18.70;80.00;;;;;;5052786;28;20021;-73
2022/05/23 03:08:34;;;;;;;0.10;0.10;;;18.80;80.10;;;;;;5052534;28;20079;-74
2022/05/23 03:11:02;;;;;;;0.10;0.10;;;18.90;79.40;;;;;;5052764;28;20025;-74
2022/05/23 03:13:28;;;;;;;0.10;0.10;;;18.70;80.50;;;;;;5052771;28;20021;-74
2022/05/23 03:15:55;;;;;;;0.10;0.10;;;18.60;81.90;;;;;;5052696;28;20033;-73
2022/05/23 03:18:23;;;;;;;0.10;0.10;;;18.50;82.00;;;;;;5052234;28;20025;-74
2022/05/23 03:21:00;;;;;;;0.10;0.10;;;18.50;83.40;;;;;;5034696;28;20492;-76
2022/05/23 03:28:56;;;;;;;0.10;0.10;;;18.30;84.30;;;;;;5052347;28;20104;-74
2022/05/23 03:31:22;;;;;;;0.05;0.05;;;18.50;84.40;;;;;;5052515;28;20519;-74
2022/05/23 03:33:47;;;;;;;0.00;0.00;;;18.50;84.00;;;;;;5052323;28;20033;-73
2022/05/23 03:36:14;;;;;;;0.10;0.10;;;18.60;83.30;;;;;;5052324;28;20396;-74
2022/05/23 03:38:40;;;;;;;0.10;0.10;;;18.50;83.60;;;;;;5051870;28;20025;-74
2022/05/23 03:41:07;;;;;;;0.10;0.10;;;18.60;83.20;;;;;;5051990;28;20358;-74
2022/05/23 03:43:33;;;;;;;0.10;0.10;;;18.40;83.60;;;;;;5051812;28;20493;-73
2022/05/23 03:46:10;;;;;;;0.10;0.10;;;18.40;83.30;;;;;;5052195;28;20100;-74
2022/05/23 03:48:37;;;;;;;0.10;0.10;;;18.20;84.30;;;;;;5051840;28;20443;-73
2022/05/23 03:51:03;;;;;;;0.10;0.10;;;18.20;84.80;;;;;;5052192;28;20103;-73
2022/05/23 03:53:30;;;;;;;0.10;0.10;;;18.40;84.10;;;;;;5052185;28;20025;-73
2022/05/23 03:55:56;;;;;;;0.50;0.50;;;18.30;84.20;;;;;;5052016;28;20029;-74
2022/05/23 03:58:23;;;;;;;0.10;0.10;;;18.20;84.60;;;;;;5051781;28;20040;-73
2022/05/23 04:00:49;;;;;;;0.13;0.13;;;18.20;84.40;;;;;;5052147;28;20429;-74
2022/05/23 04:03:16;;;;;;;0.10;0.10;;;18.10;85.20;;;;;;5051984;28;20021;-74
2022/05/23 04:05:42;;;;;;;0.10;0.10;;;18.20;85.00;;;;;;5051899;28;20385;-74
2022/05/23 04:08:09;;;;;;;0.22;0.22;;;18.30;84.30;;;;;;5051661;28;20025;-74
2022/05/23 04:10:35;;;;;;;0.20;0.20;;;18.30;84.20;;;;;;5051999;28;20035;-73
2022/05/23 04:13:02;;;;;;;0.10;0.10;;;18.40;84.30;;;;;;5051924;28;20033;-73
2022/05/23 04:15:32;;;;;;;0.10;0.10;;;18.30;85.40;;;;;;5051890;28;20508;-73
2022/05/23 04:17:58;;;;;;;0.10;0.10;;;18.30;86.10;;;;;;5051617;28;20029;-74
2022/05/23 04:20:24;;;;;;;0.20;0.20;;;18.00;87.00;;;;;;5051883;28;20025;-71
2022/05/23 04:22:50;;;;;;;0.10;0.10;;;18.10;86.50;;;;;;5051817;28;20030;-74
2022/05/23 04:25:16;;;;;;;0.10;0.10;;;17.80;88.00;;;;;;5051857;28;20052;-76
2022/05/23 04:27:42;;;;;;;0.10;0.10;;;17.80;87.90;;;;;;5017305;28;20036;-76
2022/05/23 04:30:09;;;;;;;0.10;0.10;;;17.80;88.60;;;;;;5051838;28;20029;-74
2022/05/23 04:37:50;;;;;;;0.05;0.05;;;17.90;89.80;;;;;;5029734;28;20132;-74
2022/05/23 04:40:22;;;;;;;0.10;0.10;;;18.00;89.00;;;;;;5031602;28;20021;-74
2022/05/23 04:42:48;;;;;;;0.10;0.10;;;18.00;88.90;;;;;;5031736;28;20384;-75
2022/05/23 04:45:14;;;;;;;0.10;0.10;;;18.20;88.80;;;;;;5031670;28;20108;-74
2022/05/23 04:50:26;;;;;;;0.28;0.28;;;18.50;88.00;;;;;;5031704;28;20133;-74
2022/05/23 04:52:52;;;;;;;0.10;0.10;;;18.60;87.40;;;;;;5031493;28;20033;-74
2022/05/23 04:55:19;;;;;;;0.10;0.10;;;18.70;86.90;;;;;;5031544;28;20076;-74
2022/05/23 04:57:46;;;;;;;2.58;1.48;;;18.70;87.20;;;;;;5034616;28;20440;-74
2022/05/23 05:00:18;;;;;;;0.10;0.10;;;18.70;87.00;;;;;;5017611;28;20429;-74
2022/05/23 05:02:44;;;;;;;0.22;0.22;;;18.70;87.30;;;;;;5035187;28;20096;-74
2022/05/23 05:05:11;;;;;;;0.43;0.43;;;18.60;87.70;;;;;;5035157;28;20132;-74
2022/05/23 05:07:37;;;;;;;0.05;0.05;;;18.70;87.30;;;;;;5034960;28;20032;-74
2022/05/23 05:10:04;;;;;;;0.10;0.10;;;18.70;88.00;;;;;;5035083;28;20030;-74
2022/05/23 05:12:30;;;;;;;0.10;0.10;;;18.60;88.00;;;;;;5017429;28;20096;-74
2022/05/23 05:14:56;;;;;;;0.10;0.10;;;18.70;87.80;;;;;;5035098;28;20175;-73
2022/05/23 05:17:21;;;;;;;0.82;0.82;;;18.70;88.00;;;;;;5034417;28;20436;-73
2022/05/23 05:19:47;;;;;;;0.10;0.10;;;18.50;89.80;;;;;;5011386;28;20046;-73
2022/05/23 05:22:13;;;;;;;0.17;0.17;;;18.50;90.10;;;;;;5025019;28;20061;-73
2022/05/23 05:24:39;;;;;;;0.20;0.20;;;18.50;89.60;;;;;;5037125;28;20049;-72
2022/05/23 05:27:05;;;;;;;0.52;0.30;;;18.40;90.10;;;;;;5016645;28;20032;-73
2022/05/23 05:29:31;;;;;;;0.10;0.10;;;18.40;90.20;;;;;;5039424;28;20052;-73
2022/05/23 05:32:12;;;;;;;0.20;0.20;;;18.30;90.30;;;;;;5054461;28;20029;-74
2022/05/23 05:35:01;;;;;;;0.10;0.10;;;18.30;90.50;;;;;;5054520;28;20045;-74
2022/05/23 05:37:33;;;;;;;0.28;0.28;;;18.40;91.00;;;;;;5053889;28;20041;-74
2022/05/23 05:40:04;;;;;;;0.10;0.10;;;18.40;90.80;;;;;;5034410;28;20448;-74
2022/05/23 05:42:40;;;;;;;0.13;0.13;;;18.50;90.70;;;;;;5034377;28;20057;-74
2022/05/23 05:45:18;;;;;;;0.10;0.10;;;18.60;90.80;;;;;;5000117;28;20025;-74
2022/05/23 05:47:46;;;;;;;0.10;0.10;;;18.70;90.70;;;;;;5034085;28;20025;-74
2022/05/23 05:50:31;;;;;;;0.10;0.10;;;18.80;90.70;;;;;;5019757;28;20059;-74
2022/05/23 05:53:02;;;;;;;0.10;0.10;;;18.70;91.00;;;;;;5025021;28;20021;-74
2022/05/23 05:55:29;;;;;;;0.40;0.40;;;18.60;91.30;;;;;;5054002;28;20029;-74
2022/05/23 05:57:55;;;;;;;0.10;0.10;;;18.70;91.00;;;;;;5042483;28;20030;-74
2022/05/23 06:00:20;;;;;;;0.10;0.10;;;19.00;91.10;;;;;;5034230;28;20014;-74
2022/05/23 06:02:47;;;;;;;0.10;0.10;;;19.10;90.50;;;;;;4999780;28;20026;-74
2022/05/23 06:05:12;;;;;;;0.20;0.20;;;19.20;90.40;;;;;;5014999;28;20116;-74
2022/05/23 06:13:07;;;;;;;0.10;0.10;;;19.30;90.30;;;;;;5032704;28;20029;-72
2022/05/23 06:15:32;;;;;;;0.10;0.10;;;19.30;90.30;;;;;;5032251;28;20484;-72
2022/05/23 06:17:59;;;;;;;0.20;0.20;;;19.30;90.20;;;;;;5014325;28;20100;-72
2022/05/23 06:20:25;;;;;;;0.10;0.10;;;19.10;90.90;;;;;;5015826;28;20021;-72
2022/05/23 06:22:51;;;;;;;0.30;0.30;;;19.10;91.50;;;;;;5015789;28;20038;-72
2022/05/23 06:25:17;;;;;;;0.00;0.00;;;19.20;91.30;;;;;;5037274;28;20041;-72
2022/05/23 06:27:43;;;;;;;0.10;0.10;;;19.20;91.50;;;;;;5021073;28;20025;-72
2022/05/23 06:30:12;;;;;;;0.10;0.10;;;19.20;91.50;;;;;;5053355;28;20025;-72
2022/05/23 06:32:38;;;;;;;0.10;0.10;;;19.10;92.10;;;;;;5008380;28;20062;-73
2022/05/23 06:35:07;;;;;;;0.17;0.17;;;19.10;91.90;;;;;;5033485;28;20030;-73
2022/05/23 06:37:38;;;;;;;0.10;0.10;;;19.10;92.20;;;;;;4998993;28;20373;-74
2022/05/23 06:40:07;;;;;;;0.10;0.10;;;18.80;92.60;;;;;;5034970;28;20429;-75
2022/05/23 06:42:33;;;;;;;0.13;0.13;;;18.70;93.40;;;;;;5035138;28;20025;-74
2022/05/23 06:45:04;;;;;;;0.10;0.10;;;18.70;93.00;;;;;;5035328;28;20025;-73
2022/05/23 06:47:30;;;;;;;0.10;0.10;;;18.70;93.70;;;;;;5053141;28;20017;-73
2022/05/23 06:49:56;;;;;;;0.10;0.10;;;18.90;93.60;;;;;;5035449;28;20438;-74
2022/05/23 06:52:22;;;;;;;0.90;0.38;;;19.10;93.50;;;;;;5035041;28;20021;-73
2022/05/23 06:54:48;;;;;;;0.35;0.35;;;19.00;93.50;;;;;;5053141;28;20039;-73
2022/05/23 06:57:14;;;;;;;0.10;0.10;;;18.90;93.70;;;;;;5050109;28;20099;-74
2022/05/23 06:59:39;;;;;;;0.13;0.13;;;18.70;94.00;;;;;;5032749;28;20017;-74
2022/05/23 07:02:07;;;;;;;0.10;0.10;;;18.80;94.00;;;;;;5032634;28;20467;-73
2022/05/23 07:12:50;;;;;;;0.10;0.10;;;19.60;93.40;;;;;;5032807;28;20023;-74
2022/05/23 07:15:16;;;;;;;0.10;0.10;;;19.70;93.20;;;;;;4998535;28;20468;-74
2022/05/23 07:17:42;;;;;;;0.22;0.22;;;19.60;93.00;;;;;;5031914;28;20033;-74
2022/05/23 07:20:08;;;;;;;0.10;0.10;;;19.60;92.90;;;;;;5031869;28;20389;-74
2022/05/23 07:22:34;;;;;;;0.10;0.10;;;19.80;92.90;;;;;;5017043;28;20021;-73
2022/05/23 07:25:01;;;;;;;0.10;0.10;;;19.80;93.10;;;;;;5040170;28;20021;-73
2022/05/23 07:27:28;;;;;;;3.40;0.40;;;20.00;92.90;;;;;;5015061;28;20100;-74
2022/05/23 07:29:55;;;;;;;0.10;0.10;;;20.10;92.60;;;;;;5014103;28;20057;-73
2022/05/23 07:32:20;;;;;;;0.00;0.00;;;20.20;92.80;;;;;;5014678;28;20031;-74
2022/05/23 07:34:46;;;;;;;0.05;0.05;;;20.40;92.80;;;;;;5030959;28;20484;-73
2022/05/23 07:37:14;;;;;;;0.10;0.10;;;20.60;92.40;;;;;;5029603;28;20044;-73
2022/05/23 07:39:41;;;;;;;0.10;0.10;;;20.30;92.60;;;;;;5030901;28;20025;-73
2022/05/23 07:42:08;;;;;;;0.20;0.20;;;20.10;93.50;;;;;;5029722;28;20030;-73
2022/05/23 07:44:35;;;;;;;0.10;0.10;;;20.10;93.60;;;;;;5010516;28;20390;-73
2022/05/23 07:47:03;;;;;;;0.00;0.00;;;20.20;94.30;;;;;;5026510;28;20036;-73
2022/05/23 07:49:29;;;;;;;0.10;0.10;;;20.20;94.80;;;;;;5029175;28;20508;-73
2022/05/23 07:51:56;;;;;;;0.00;0.00;;;20.30;96.40;;;;;;5030582;28;20125;-74
2022/05/23 08:02:39;;;;;;;0.00;0.00;;;21.10;99.80;;;;;;5013177;28;20059;-73
2022/05/23 08:05:05;;;;;;;0.22;0.22;;;21.50;98.30;;;;;;5011418;28;20052;-73
2022/05/23 08:07:31;;;;;;;1.63;1.10;;;21.20;96.40;;;;;;5031258;28;20760;-73
2022/05/23 08:10:00;;;;;;;9.02;1.52;;;20.90;97.60;;;;;;4993972;28;20120;-73
2022/05/23 08:12:28;;;;;;;0.30;0.30;;;20.50;96.50;;;;;;5030567;28;20045;-73
2022/05/23 08:14:54;;;;;;;0.10;0.10;;;20.20;99.90;;;;;;5011185;28;20128;-73
2022/05/23 08:17:19;;;;;;;0.10;0.10;;;20.20;99.90;;;;;;5011199;28;20029;-73
2022/05/23 08:19:45;;;;;;;0.10;0.10;;;20.20;99.90;;;;;;5028432;28;20052;-73
2022/05/23 08:22:11;;;;;;;0.10;0.10;;;20.50;99.90;;;;;;5013329;28;20068;-73
2022/05/23 08:24:37;;;;;;;0.00;0.00;;;20.60;99.90;;;;;;5013566;28;20033;-72
2022/05/23 08:27:03;;;;;;;0.10;0.10;;;20.80;99.90;;;;;;5012352;28;20037;-74
2022/05/23 08:29:31;;;;;;;0.10;0.10;;;20.90;99.90;;;;;;5030890;28;20025;-73
2022/05/23 08:31:58;;;;;;;1.00;0.32;;;21.00;99.90;;;;;;5014933;28;20028;-73
2022/05/23 08:34:24;;;;;;;0.57;0.50;;;21.00;99.90;;;;;;5034065;28;20113;-73
2022/05/23 08:36:52;;;;;;;0.20;0.20;;;21.30;99.90;;;;;;5031956;28;20041;-73
2022/05/23 08:39:18;;;;;;;0.13;0.13;;;21.70;98.00;;;;;;5015688;28;20034;-73
2022/05/23 08:41:47;;;;;;;1.65;1.05;;;21.80;97.00;;;;;;5015629;28;20033;-72
2022/05/23 08:44:16;;;;;;;0.45;0.40;;;21.80;97.10;;;;;;5016549;28;20029;-73
2022/05/23 08:46:53;;;;;;;1.05;0.70;;;22.10;94.70;;;;;;5015574;28;20036;-73
2022/05/23 08:49:38;;;;;;;0.22;0.22;;;22.30;93.50;;;;;;5033018;28;20539;-73
2022/05/23 08:52:23;;;;;;;0.00;0.00;;;22.00;92.90;;;;;;5034188;28;20030;-73
2022/05/23 08:55:17;;;;;;;0.32;0.32;;;21.90;92.70;;;;;;5033549;28;20515;-74
2022/05/23 08:57:52;;;;;;;1.30;0.80;;;21.90;92.80;;;;;;5031583;28;20120;-73
2022/05/23 09:00:42;;;;;;;0.57;0.43;;;21.80;93.10;;;;;;5032688;28;20034;-72
2022/05/23 09:03:19;;;;;;;0.57;0.55;;;21.80;93.30;;;;;;5026856;28;20047;-73
2022/05/23 09:05:51;;;;;;;0.20;0.20;;;22.10;92.90;;;;;;5032948;28;20029;-74
2022/05/23 09:08:22;;;;;;;0.68;0.68;;;22.50;92.60;;;;;;5013851;28;20551;-73
2022/05/23 09:10:55;;;;;;;1.25;1.05;;;22.80;92.10;;;;;;5015801;28;20025;-74
2022/05/23 09:13:23;;;;;;;0.93;0.93;;;23.10;91.10;;;;;;5013870;28;20060;-73
2022/05/23 09:15:52;;;;;;;0.15;0.15;;;23.20;90.60;;;;;;5032228;28;20683;-74
2022/05/23 09:18:23;;;;;;;2.25;0.40;;;23.60;91.20;;;;;;5032469;28;20033;-72
2022/05/23 09:20:51;;;;;;;3.30;0.82;;;23.70;90.00;;;;;;5032445;28;20104;-73
2022/05/23 09:23:28;;;;;;;0.73;0.73;;;23.60;89.90;;;;;;5015470;28;20381;-73
2022/05/23 09:25:56;;;;;;;0.20;0.20;;;23.70;90.00;;;;;;5031903;28;20247;-73
2022/05/23 09:28:28;;;;;;;0.13;0.13;;;23.70;89.00;;;;;;5033686;28;20548;-73
2022/05/23 09:31:12;;;;;;;5.57;1.48;;;23.80;89.70;;;;;;5014902;28;20400;-73
2022/05/23 09:33:45;;;;;;;0.50;0.50;;;23.50;88.60;;;;;;5032781;28;20061;-73
2022/05/23 09:36:19;;;;;;;0.05;0.05;;;23.40;90.00;;;;;;5033769;28;20037;-74
2022/05/23 09:39:03;;;;;;;0.50;0.50;;;23.10;90.10;;;;;;5030639;28;20580;-73
2022/05/23 09:41:28;;;;;;;0.10;0.10;;;23.10;89.90;;;;;;5029330;28;20134;-73
2022/05/23 09:49:26;;;;;;;0.32;0.32;;;23.00;90.10;;;;;;5033122;28;20041;-72
2022/05/23 09:52:18;;;;;;;3.45;2.50;;;22.80;90.50;;;;;;5031796;28;20072;-72
2022/05/23 09:54:53;;;;;;;0.63;0.63;;;22.70;90.80;;;;;;5014411;28;20044;-73
2022/05/23 09:57:39;;;;;;;2.25;1.38;;;22.90;91.00;;;;;;5015480;28;20437;-72
2022/05/23 10:00:25;;;;;;;0.55;0.55;;;23.00;90.40;;;;;;5033499;28;20033;-72
2022/05/23 10:03:02;;;;;;;2.17;1.48;;;23.30;90.20;;;;;;5015745;28;20029;-72
2022/05/23 10:05:46;;;;;;;4.93;0.75;;;23.40;89.40;;;;;;4996335;28;20116;-72
2022/05/23 10:08:28;;;;;;;0.15;0.15;;;22.90;90.00;;;;;;5030534;28;20033;-73
2022/05/23 10:10:58;;;;;;;1.08;0.85;;;22.90;90.50;;;;;;5032141;28;20512;-73
2022/05/23 10:13:36;;;;;;;1.02;0.25;;;23.00;90.30;;;;;;5034182;28;20064;-73
2022/05/23 10:16:13;;;;;;;0.63;0.63;;;22.90;90.40;;;;;;4996223;28;20048;-73
2022/05/23 10:18:54;;;;;;;0.98;0.88;;;22.90;90.70;;;;;;5011264;28;20037;-73
2022/05/23 10:21:39;;;;;;;0.25;0.25;;;23.20;90.70;;;;;;5011828;28;20033;-74
2022/05/23 10:24:08;;;;;;;0.73;0.73;;;23.40;90.10;;;;;;5031340;28;20396;-74
2022/05/23 10:26:44;;;;;;;2.72;1.17;;;23.40;90.00;;;;;;5013672;28;20500;-75
2022/05/23 10:29:33;;;;;;;1.05;0.77;;;23.40;89.60;;;;;;5031015;28;20029;-75
2022/05/23 10:32:04;;;;;;;0.85;0.75;;;23.50;89.50;;;;;;5014039;28;20040;-75
2022/05/23 10:34:56;;;;;;;2.92;2.03;;;23.60;89.00;;;;;;5033094;28;20033;-75
2022/05/23 10:37:26;;;;;;;0.30;0.30;;;23.70;88.10;;;;;;5031332;28;20055;-74
2022/05/23 10:43:13;;;;;;;0.32;0.32;;;23.80;87.10;;;;;;5012344;28;20030;-74
2022/05/23 10:45:47;;;;;;;0.73;0.40;;;24.10;87.20;;;;;;5032327;28;20033;-75
2022/05/23 10:48:22;;;;;;;6.15;0.22;;;24.70;85.30;;;;;;5028702;28;20318;-74
2022/05/23 10:50:58;;;;;;;0.65;0.65;;;25.00;82.80;;;;;;5014305;28;20038;-74
2022/05/23 10:53:43;;;;;;;0.73;0.73;;;25.20;82.00;;;;;;5015094;28;20041;-74
2022/05/23 10:56:20;;;;;;;3.58;2.28;;;25.20;81.80;;;;;;5030769;28;20039;-71
2022/05/23 10:58:56;;;;;;;0.28;0.28;;;25.10;82.80;;;;;;5013505;28;20065;-71
2022/05/23 11:01:49;;;;;;;0.30;0.30;;;24.90;82.00;;;;;;5030040;28;20029;-75
2022/05/23 11:04:49;;;;;;;0.20;0.20;;;25.20;81.80;;;;;;5014354;28;20487;-75
2022/05/23 11:07:33;;;;;;;0.00;0.00;;;25.40;80.20;;;;;;5031442;28;20029;-75
2022/05/23 11:10:14;;;;;;;1.02;0.50;;;25.90;80.80;;;;;;4997428;28;20389;-74
2022/05/23 11:13:11;;;;;;;0.73;0.65;;;26.30;76.80;;;;;;5032659;28;20151;-74
2022/05/23 11:15:52;;;;;;;0.57;0.57;;;26.40;76.50;;;;;;5014430;28;20055;-72
2022/05/23 11:18:41;;;;;;;0.23;0.23;;;26.50;77.60;;;;;;5011788;28;20400;-72
2022/05/23 11:21:13;;;;;;;0.08;0.08;;;26.80;74.80;;;;;;5013291;28;20491;-72
2022/05/23 11:23:57;;;;;;;0.43;0.28;;;26.80;74.50;;;;;;5013736;28;20591;-75
2022/05/23 11:26:26;;;;;;;0.52;0.20;;;26.70;72.30;;;;;;5029146;28;20030;-72
2022/05/23 11:34:51;;;;;;;1.83;0.80;;;26.50;73.60;;;;;;5013408;28;20033;-73
2022/05/23 11:39:53;;;;;;;1.00;0.90;;;26.90;72.20;;;;;;5029810;28;20044;-73
2022/05/23 11:42:28;;;;;;;0.40;0.30;;;26.70;71.90;;;;;;5011398;28;20029;-73
2022/05/23 11:44:58;;;;;;;0.25;0.25;;;26.70;72.20;;;;;;4994901;28;20234;-73
2022/05/23 11:47:27;;;;;;;0.43;0.40;;;26.90;72.10;;;;;;5031423;28;20037;-74
2022/05/23 11:49:58;;;;;;;4.15;2.42;;;27.00;73.50;;;;;;5029594;28;20087;-73
2022/05/23 11:52:24;;;;;;;2.22;1.38;;;27.00;72.10;;;;;;4997394;28;20033;-73
2022/05/23 11:54:50;;;;;;;0.43;0.32;;;27.10;72.30;;;;;;5014326;28;20547;-74
2022/05/23 11:57:35;;;;;;;0.10;0.10;;;27.20;72.10;;;;;;5031322;28;20033;-73
2022/05/23 12:00:16;;;;;;;0.20;0.20;;;27.10;73.70;;;;;;5025812;28;20041;-74
2022/05/23 12:03:03;;;;;;;0.93;0.88;;;26.90;74.20;;;;;;4979339;28;20174;-73
2022/05/23 12:05:32;;;;;;;0.52;0.25;;;26.50;73.50;;;;;;5029695;28;20033;-73
2022/05/23 12:08:01;;;;;;;0.30;0.30;;;26.60;73.50;;;;;;5029743;28;20021;-74
2022/05/23 12:10:28;;;;;;;2.03;1.20;;;26.50;73.70;;;;;;5028385;28;20501;-73
2022/05/23 12:12:58;;;;;;;9.00;1.75;;;26.20;74.90;;;;;;5009736;28;20033;-73
2022/05/23 12:15:42;;;;;;;1.73;0.55;;;26.00;73.30;;;;;;5012606;28;20401;-73
2022/05/23 12:18:27;;;;;;;0.35;0.35;;;26.30;72.50;;;;;;5028904;28;20034;-74
2022/05/23 12:20:55;;;;;;;0.20;0.20;;;26.30;71.40;;;;;;5028033;28;20040;-74
2022/05/23 12:23:42;;;;;;;0.25;0.25;;;26.10;71.40;;;;;;5011593;28;20036;-74
2022/05/23 12:26:11;;;;;;;0.32;0.17;;;26.00;71.30;;;;;;5010466;28;20029;-74
2022/05/23 12:28:58;;;;;;;1.65;0.80;;;26.00;71.80;;;;;;5013480;28;20095;-74
2022/05/23 12:31:34;;;;;;;0.00;0.00;;;26.00;70.00;;;;;;5027148;28;20032;-74
2022/05/23 12:34:02;;;;;;;9.85;1.63;;;26.00;69.80;;;;;;5012468;28;20056;-73
2022/05/23 12:36:31;;;;;;;1.05;0.68;;;25.90;70.70;;;;;;5028732;28;20060;-74
2022/05/23 12:39:18;;;;;;;0.40;0.40;;;26.10;70.60;;;;;;5012958;28;20063;-74
2022/05/23 12:42:13;;;;;;;0.50;0.50;;;26.10;71.60;;;;;;5012059;28;20041;-73
2022/05/23 12:44:53;;;;;;;2.63;1.33;;;26.00;71.30;;;;;;5028041;28;20215;-74
2022/05/23 12:47:49;;;;;;;0.30;0.30;;;25.90;71.50;;;;;;5029204;28;20033;-74
2022/05/23 12:50:43;;;;;;;0.40;0.40;;;25.70;73.20;;;;;;4994440;28;20045;-74
2022/05/23 12:53:47;;;;;;;0.22;0.22;;;25.60;74.10;;;;;;5010996;28;20139;-74
2022/05/23 12:56:21;;;;;;;0.00;0.00;;;25.50;73.90;;;;;;5029043;28;20037;-74
2022/05/23 12:58:55;;;;;;;0.28;0.28;;;25.40;73.80;;;;;;5012264;28;20025;-74
2022/05/23 13:01:27;;;;;;;0.50;0.50;;;25.30;74.10;;;;;;5028241;28;20150;-73
2022/05/23 13:03:57;;;;;;;0.00;0.00;;;25.30;74.70;;;;;;5028962;28;20142;-72
2022/05/23 13:06:39;;;;;;;0.00;0.00;;;25.30;75.10;;;;;;5027465;28;20942;-73
2022/05/23 13:09:05;;;;;;;0.10;0.10;;;25.40;75.40;;;;;;5028509;28;20037;-72
2022/05/23 13:11:34;;;;;;;14.70;0.38;;;25.30;75.40;;;;;;5012312;28;20083;-73
2022/05/23 13:14:00;;;;;;;0.52;0.50;;;25.00;76.10;;;;;;5047998;22;20051;-74
2022/05/23 13:16:29;;;;;;;0.10;0.10;;;24.80;77.00;;;;;;5029274;28;20147;-74
2022/05/23 13:22:05;;;;;;;0.00;0.00;;;24.70;76.70;;;;;;5032660;28;20033;-72
2022/05/23 13:27:25;;;;;;;0.65;0.52;;;24.50;77.50;;;;;;5042995;28;20025;-74
2022/05/23 13:29:59;;;;;;;0.30;0.30;;;24.60;77.70;;;;;;5043419;28;20412;-73
2022/05/23 13:32:26;;;;;;;0.00;0.00;;;24.30;78.90;;;;;;5015650;28;20063;-72
2022/05/23 13:34:53;;;;;;;0.00;0.00;;;24.20;79.70;;;;;;5043206;28;20425;-74
2022/05/23 13:37:34;;;;;;;0.10;0.10;;;24.20;80.30;;;;;;5009950;28;20032;-76
2022/05/23 13:40:10;;;;;;;0.00;0.00;;;24.30;79.50;;;;;;5035873;28;20037;-76
2022/05/23 13:42:36;;;;;;;1.20;0.65;;;24.30;81.90;;;;;;5047865;28;20037;-74
2022/05/23 13:45:17;;;;;;;0.00;0.00;;;24.20;87.30;;;;;;5043419;28;20100;-74
2022/05/23 13:48:05;;;;;;;0.00;0.00;;;24.00;85.10;;;;;;5043153;28;20948;-73
2022/05/23 13:50:37;;;;;;;0.00;0.00;;;24.10;85.10;;;;;;5043203;28;20065;-71
2022/05/23 13:53:08;;;;;;;0.00;0.00;;;24.30;84.40;;;;;;5042909;28;20507;-73
2022/05/23 13:55:46;;;;;;;0.17;0.17;;;24.40;86.90;;;;;;5043181;28;20083;-73
2022/05/23 13:58:21;;;;;;;0.00;0.00;;;24.20;89.10;;;;;;5027991;28;20069;-76
2022/05/23 14:00:52;;;;;;;0.00;0.00;;;24.10;88.20;;;;;;5035255;28;20032;-73
2022/05/23 14:03:23;;;;;;;0.00;0.00;;;24.00;88.80;;;;;;5035796;28;20120;-72
2022/05/23 14:05:53;;;;;;;0.05;0.05;;;23.90;87.20;;;;;;5042369;28;20555;-73
2022/05/23 14:08:41;;;;;;;0.63;0.63;;;24.00;86.40;;;;;;5042711;28;20457;-73
2022/05/23 14:11:18;;;;;;;0.05;0.05;;;23.90;89.10;;;;;;5042464;28;20308;-73